createdAt,value
2019-03-31T00:02:07.906Z,53.97
2019-03-31T00:04:36.396Z,56.60
2019-03-31T00:07:05.031Z,55.37
2019-03-31T00:09:33.564Z,55.27
2019-03-31T00:12:02.105Z,53.97
2019-03-31T00:14:30.839Z,53.50
2019-03-31T00:16:59.364Z,48.83
2019-03-31T00:19:27.884Z,48.27
2019-03-31T00:21:56.355Z,50.27
2019-03-31T00:24:24.798Z,60.13
2019-03-31T00:26:54.214Z,60.00
2019-03-31T00:29:42.248Z,60.40
2019-03-31T00:32:10.747Z,54.07
2019-03-31T00:34:39.297Z,62.63
2019-03-31T00:37:08.036Z,58.37
2019-03-31T00:39:36.528Z,60.50
2019-03-31T00:42:05.074Z,65.03
2019-03-31T00:44:33.581Z,59.97
2019-03-31T00:47:02.400Z,63.67
2019-03-31T00:49:31.018Z,66.37
2019-03-31T00:51:59.471Z,60.60
2019-03-31T00:54:28.051Z,57.83
2019-03-31T00:56:56.573Z,61.03
2019-03-31T00:59:25.047Z,63.20
2019-03-31T01:01:55.069Z,66.23
2019-03-31T01:04:26.140Z,64.57
2019-03-31T01:06:55.436Z,63.93
2019-03-31T01:09:28.630Z,66.57
2019-03-31T01:11:57.173Z,64.87
2019-03-31T01:14:26.624Z,73.53
2019-03-31T01:16:55.239Z,68.17
2019-03-31T01:19:24.798Z,66.57
2019-03-31T01:21:53.234Z,62.33
2019-03-31T01:24:21.711Z,67.03
2019-03-31T01:26:50.295Z,60.27
2019-03-31T01:29:19.115Z,68.17
2019-03-31T01:31:50.699Z,67.63
2019-03-31T01:34:18.640Z,62.50
2019-03-31T01:36:47.172Z,63.10
2019-03-31T01:39:15.927Z,68.00
2019-03-31T01:41:44.509Z,68.63
2019-03-31T01:44:13.226Z,67.27
2019-03-31T01:46:41.692Z,71.57
2019-03-31T01:49:10.227Z,69.20
2019-03-31T01:51:39.624Z,64.60
2019-03-31T01:54:08.178Z,75.10
2019-03-31T01:56:36.719Z,70.23
2019-03-31T01:59:05.171Z,83.70
2019-03-31T02:01:33.783Z,74.40
2019-03-31T02:04:02.305Z,76.73
2019-03-31T02:06:30.931Z,74.57
2019-03-31T02:08:59.404Z,71.83
2019-03-31T02:11:27.866Z,77.83
2019-03-31T02:13:56.305Z,77.70
2019-03-31T02:16:24.850Z,80.77
2019-03-31T02:18:53.300Z,77.40
2019-03-31T02:21:21.773Z,80.20
2019-03-31T02:23:50.235Z,82.60
2019-03-31T02:26:18.693Z,80.40
2019-03-31T02:28:47.153Z,85.30
2019-03-31T02:31:15.678Z,86.07
2019-03-31T02:33:44.149Z,81.87
2019-03-31T02:36:12.690Z,86.67
2019-03-31T02:38:41.143Z,85.63
2019-03-31T02:41:09.606Z,86.57
2019-03-31T02:43:38.050Z,86.93
2019-03-31T02:46:06.555Z,85.77
2019-03-31T02:48:34.985Z,82.13
2019-03-31T02:51:03.495Z,87.03
2019-03-31T02:53:32.105Z,90.67
2019-03-31T02:56:01.017Z,94.17
2019-03-31T02:58:30.055Z,93.87
2019-03-31T03:00:59.435Z,82.87
2019-03-31T03:03:29.791Z,89.53
2019-03-31T03:06:00.051Z,87.27
2019-03-31T03:08:30.954Z,81.60
2019-03-31T03:11:01.236Z,85.93
2019-03-31T03:13:31.898Z,89.97
2019-03-31T03:16:03.526Z,79.17
2019-03-31T03:18:32.400Z,77.47
2019-03-31T03:21:00.890Z,84.67
2019-03-31T03:23:29.372Z,87.77
2019-03-31T03:25:57.860Z,85.27
2019-03-31T03:28:26.332Z,80.03
2019-03-31T03:30:55.268Z,87.07
2019-03-31T03:33:23.962Z,84.33
2019-03-31T03:35:52.486Z,83.40
2019-03-31T03:38:20.952Z,84.87
2019-03-31T03:40:49.394Z,87.33
2019-03-31T03:43:17.886Z,80.47
2019-03-31T03:45:46.411Z,78.77
2019-03-31T03:48:14.903Z,91.37
2019-03-31T03:50:43.364Z,83.03
2019-03-31T03:53:11.844Z,84.77
2019-03-31T03:55:40.352Z,78.17
2019-03-31T03:58:08.871Z,83.77
2019-03-31T04:00:37.709Z,88.80
2019-03-31T04:03:06.247Z,93.67
2019-03-31T04:05:34.713Z,103.53
2019-03-31T04:08:03.192Z,88.70
2019-03-31T04:10:46.507Z,97.83
2019-03-31T04:13:15.456Z,98.93
2019-03-31T04:15:43.938Z,98.07
2019-03-31T04:18:12.443Z,98.23
2019-03-31T04:20:40.974Z,102.87
2019-03-31T04:23:09.488Z,95.40
2019-03-31T04:25:38.026Z,106.10
2019-03-31T04:28:06.573Z,102.47
2019-03-31T04:30:35.123Z,101.97
2019-03-31T04:33:03.601Z,102.67
2019-03-31T04:35:32.037Z,99.40
2019-03-31T04:38:00.515Z,83.00
2019-03-31T04:40:29.001Z,74.00
2019-03-31T04:42:57.473Z,76.20
2019-03-31T04:45:25.925Z,65.87
2019-03-31T04:47:54.394Z,67.00
2019-03-31T04:50:22.910Z,67.57
2019-03-31T04:52:51.392Z,67.57
2019-03-31T04:55:19.848Z,70.00
2019-03-31T04:57:48.355Z,75.77
2019-03-31T05:00:16.836Z,71.10
2019-03-31T05:02:45.286Z,75.13
2019-03-31T05:05:13.752Z,75.57
2019-03-31T05:07:42.291Z,69.07
2019-03-31T05:10:10.908Z,76.00
2019-03-31T05:12:39.357Z,67.13
2019-03-31T05:15:07.932Z,65.63
2019-03-31T05:17:36.428Z,63.67
2019-03-31T05:20:24.291Z,60.87
2019-03-31T05:22:53.070Z,54.80
2019-03-31T05:25:21.696Z,66.00
2019-03-31T05:27:50.152Z,61.20
2019-03-31T05:30:18.600Z,63.60
2019-03-31T05:32:47.087Z,55.63
2019-03-31T05:35:15.635Z,55.10
2019-03-31T05:37:50.739Z,60.70
2019-03-31T05:40:14.347Z,49.60
2019-03-31T05:42:42.799Z,56.73
2019-03-31T05:45:11.324Z,55.37
2019-03-31T05:47:39.771Z,48.83
2019-03-31T05:50:08.244Z,48.07
2019-03-31T05:52:36.680Z,51.13
2019-03-31T05:55:06.612Z,53.33
2019-03-31T05:57:35.067Z,49.27
2019-03-31T06:00:05.864Z,50.30
2019-03-31T06:02:34.335Z,43.77
2019-03-31T06:05:02.818Z,45.30
2019-03-31T06:07:31.268Z,46.53
2019-03-31T06:09:59.740Z,42.10
2019-03-31T06:12:31.893Z,39.80
2019-03-31T06:15:00.420Z,41.73
2019-03-31T06:17:28.947Z,43.80
2019-03-31T06:19:57.392Z,47.50
2019-03-31T06:22:25.853Z,40.17
2019-03-31T06:24:54.301Z,47.37
2019-03-31T06:27:22.776Z,45.07
2019-03-31T06:29:51.250Z,39.57
2019-03-31T06:32:19.709Z,39.27
2019-03-31T06:34:48.186Z,43.17
2019-03-31T06:37:16.709Z,41.20
2019-03-31T06:39:45.156Z,38.83
2019-03-31T06:42:13.627Z,37.63
2019-03-31T06:44:42.083Z,39.60
2019-03-31T06:47:10.553Z,42.13
2019-03-31T06:49:39.024Z,35.53
2019-03-31T06:52:07.494Z,39.33
2019-03-31T06:54:36.544Z,43.93
2019-03-31T06:57:05.044Z,32.50
2019-03-31T06:59:33.515Z,40.60
2019-03-31T07:02:03.334Z,33.00
2019-03-31T07:04:32.105Z,33.47
2019-03-31T07:07:00.544Z,36.33
2019-03-31T07:09:29.019Z,35.57
2019-03-31T07:11:57.487Z,35.60
2019-03-31T07:14:25.935Z,33.20
2019-03-31T07:16:54.407Z,32.10
2019-03-31T07:19:22.867Z,30.53
2019-03-31T07:21:51.331Z,30.83
2019-03-31T07:24:19.770Z,28.10
2019-03-31T07:26:48.258Z,30.67
2019-03-31T07:29:16.727Z,25.57
2019-03-31T07:31:45.201Z,28.83
2019-03-31T07:34:13.655Z,22.80
2019-03-31T07:36:42.143Z,25.53
2019-03-31T07:39:10.685Z,28.47
2019-03-31T07:41:39.481Z,21.30
2019-03-31T07:44:08.021Z,23.30
2019-03-31T07:46:36.561Z,22.47
2019-03-31T07:49:04.999Z,21.47
2019-03-31T07:51:33.482Z,21.00
2019-03-31T07:54:01.919Z,23.30
2019-03-31T07:56:30.354Z,22.87
2019-03-31T07:58:59.500Z,17.40
2019-03-31T08:01:28.019Z,25.90
2019-03-31T08:03:56.494Z,21.27
2019-03-31T08:06:24.963Z,20.53
2019-03-31T08:08:53.612Z,22.17
2019-03-31T08:11:22.152Z,22.40
2019-03-31T08:13:50.630Z,23.63
2019-03-31T08:16:19.062Z,24.30
2019-03-31T08:18:47.522Z,27.30
2019-03-31T08:21:15.991Z,26.40
2019-03-31T08:23:44.427Z,23.77
2019-03-31T08:26:12.892Z,23.83
2019-03-31T08:28:41.329Z,24.97
2019-03-31T08:31:09.794Z,26.67
2019-03-31T08:33:38.243Z,24.37
2019-03-31T08:36:06.706Z,24.47
2019-03-31T08:38:35.225Z,23.23
2019-03-31T08:41:03.869Z,24.23
2019-03-31T08:43:32.302Z,27.53
2019-03-31T08:46:00.770Z,24.57
2019-03-31T08:48:29.223Z,27.53
2019-03-31T08:50:57.666Z,22.50
2019-03-31T08:53:26.218Z,26.83
2019-03-31T08:55:54.654Z,28.50
2019-03-31T08:58:23.090Z,24.20
2019-03-31T09:00:53.193Z,21.60
2019-03-31T09:03:21.708Z,21.77
2019-03-31T09:06:01.071Z,19.53
2019-03-31T09:08:20.335Z,19.37
2019-03-31T09:10:48.795Z,23.87
2019-03-31T09:13:17.252Z,22.13
2019-03-31T09:15:45.699Z,21.13
2019-03-31T09:18:14.178Z,21.47
2019-03-31T09:20:42.622Z,22.47
2019-03-31T09:23:11.097Z,17.57
2019-03-31T09:25:39.622Z,19.93
2019-03-31T09:28:08.080Z,17.33
2019-03-31T09:30:36.565Z,18.30
2019-03-31T09:33:05.102Z,19.77
2019-03-31T09:35:33.562Z,18.13
2019-03-31T09:38:02.004Z,25.83
2019-03-31T09:40:30.462Z,21.53
2019-03-31T09:42:58.946Z,20.23
2019-03-31T09:45:27.407Z,21.27
2019-03-31T09:47:55.855Z,16.70
2019-03-31T09:50:24.316Z,18.37
2019-03-31T09:52:52.871Z,18.10
2019-03-31T09:55:23.082Z,17.17
2019-03-31T09:57:51.550Z,17.80
2019-03-31T10:00:31.882Z,18.63
2019-03-31T10:03:01.207Z,19.10
2019-03-31T10:05:29.899Z,16.57
2019-03-31T10:07:58.568Z,17.50
2019-03-31T10:10:32.245Z,15.13
2019-03-31T10:13:00.976Z,16.73
2019-03-31T10:15:29.487Z,16.50
2019-03-31T10:17:58.015Z,17.53
2019-03-31T10:20:26.519Z,19.20
2019-03-31T10:22:54.990Z,18.37
2019-03-31T10:25:23.543Z,16.00
2019-03-31T10:27:52.093Z,19.33
2019-03-31T10:30:32.054Z,19.17
2019-03-31T10:33:00.490Z,18.53
2019-03-31T10:35:29.034Z,17.97
2019-03-31T10:37:57.493Z,17.90
2019-03-31T10:40:25.939Z,16.57
2019-03-31T10:42:54.408Z,15.70
2019-03-31T10:45:22.842Z,13.93
2019-03-31T10:47:51.312Z,16.40
2019-03-31T10:50:19.798Z,21.23
2019-03-31T10:52:51.751Z,16.50
2019-03-31T10:55:20.230Z,13.47
2019-03-31T10:57:48.721Z,12.50
2019-03-31T11:00:20.306Z,12.40
2019-03-31T11:02:48.746Z,12.13
2019-03-31T11:05:17.350Z,12.43
2019-03-31T11:07:45.793Z,12.93
2019-03-31T11:10:15.040Z,13.67
2019-03-31T11:12:46.373Z,14.20
2019-03-31T11:15:14.897Z,14.43
2019-03-31T11:17:43.382Z,14.60
2019-03-31T11:20:11.918Z,13.70
2019-03-31T11:22:42.036Z,18.03
2019-03-31T11:25:20.614Z,15.13
2019-03-31T11:27:43.738Z,13.67
2019-03-31T11:30:11.706Z,19.97
2019-03-31T11:32:40.183Z,13.77
2019-03-31T11:35:08.707Z,14.87
2019-03-31T11:37:37.183Z,16.37
2019-03-31T11:40:07.462Z,19.03
2019-03-31T11:42:35.935Z,16.37
2019-03-31T11:45:06.411Z,14.87
2019-03-31T11:47:34.954Z,19.60
2019-03-31T11:50:05.045Z,12.53
2019-03-31T11:52:33.514Z,13.83
2019-03-31T11:55:01.955Z,14.43
2019-03-31T11:57:30.431Z,13.53
2019-03-31T11:59:58.919Z,13.83
2019-03-31T12:02:27.918Z,15.17
2019-03-31T12:04:56.507Z,17.03
2019-03-31T12:07:28.102Z,13.30
2019-03-31T12:09:55.136Z,22.70
2019-03-31T12:12:23.588Z,13.83
2019-03-31T12:15:00.296Z,15.63
2019-03-31T12:17:22.343Z,12.73
2019-03-31T12:19:50.798Z,16.13
2019-03-31T12:22:19.278Z,11.17
2019-03-31T12:24:47.731Z,17.77
2019-03-31T12:27:16.194Z,12.73
2019-03-31T12:29:44.670Z,14.70
2019-03-31T12:32:32.479Z,13.07
2019-03-31T12:35:00.916Z,13.03
2019-03-31T12:37:41.678Z,14.77
2019-03-31T12:39:59.562Z,15.70
2019-03-31T12:42:28.028Z,15.17
2019-03-31T12:44:56.519Z,15.87
2019-03-31T12:47:25.039Z,15.90
2019-03-31T12:49:53.498Z,15.10
2019-03-31T12:52:22.051Z,16.00
2019-03-31T12:54:50.499Z,15.77
2019-03-31T12:57:19.071Z,15.10
2019-03-31T12:59:47.542Z,15.87
2019-03-31T13:02:16.054Z,17.53
2019-03-31T13:04:44.531Z,14.37
2019-03-31T13:07:14.879Z,15.00
2019-03-31T13:09:43.178Z,17.07
2019-03-31T13:12:11.624Z,17.87
2019-03-31T13:14:40.098Z,17.47
2019-03-31T13:17:08.586Z,13.23
2019-03-31T13:19:37.057Z,15.43
2019-03-31T13:22:05.583Z,14.87
2019-03-31T13:24:34.131Z,16.20
2019-03-31T13:27:02.579Z,15.63
2019-03-31T13:29:31.059Z,16.63
2019-03-31T13:31:59.500Z,17.53
2019-03-31T13:34:27.961Z,18.63
2019-03-31T13:36:56.408Z,16.33
2019-03-31T13:39:24.875Z,14.30
2019-03-31T13:41:53.343Z,17.17
2019-03-31T13:44:21.790Z,17.90
2019-03-31T13:46:50.266Z,17.23
2019-03-31T13:49:18.715Z,14.40
2019-03-31T13:51:47.179Z,20.17
2019-03-31T13:54:15.659Z,15.23
2019-03-31T13:56:47.709Z,18.30
2019-03-31T13:59:14.294Z,17.70
2019-03-31T14:01:43.306Z,16.13
2019-03-31T14:04:12.439Z,16.10
2019-03-31T14:06:40.987Z,15.07
2019-03-31T14:09:10.002Z,15.83
2019-03-31T14:11:38.587Z,15.33
2019-03-31T14:14:07.078Z,14.80
2019-03-31T14:16:35.548Z,11.33
2019-03-31T14:19:04.259Z,13.00
2019-03-31T14:21:32.727Z,17.03
2019-03-31T14:24:01.198Z,15.10
2019-03-31T14:26:29.641Z,17.03
2019-03-31T14:28:58.121Z,12.93
2019-03-31T14:31:26.583Z,12.10
2019-03-31T14:33:55.018Z,19.53
2019-03-31T14:36:23.483Z,18.60
2019-03-31T14:38:52.022Z,14.10
2019-03-31T14:41:20.558Z,12.37
2019-03-31T14:43:49.039Z,19.27
2019-03-31T14:46:19.652Z,15.70
2019-03-31T14:48:47.654Z,16.73
2019-03-31T14:51:16.190Z,19.57
2019-03-31T14:53:44.639Z,16.27
2019-03-31T14:56:13.104Z,12.37
2019-03-31T14:58:41.541Z,17.23
2019-03-31T15:01:10.097Z,16.93
2019-03-31T15:03:38.561Z,19.70
2019-03-31T15:06:07.007Z,15.10
2019-03-31T15:08:35.483Z,13.27
2019-03-31T15:11:03.920Z,14.37
2019-03-31T15:13:32.395Z,15.17
2019-03-31T15:16:00.905Z,17.43
2019-03-31T15:18:29.375Z,12.50
2019-03-31T15:20:57.811Z,17.23
2019-03-31T15:23:29.587Z,16.40
2019-03-31T15:25:56.559Z,19.13
2019-03-31T15:28:25.136Z,14.20
2019-03-31T15:30:53.613Z,15.03
2019-03-31T15:33:22.058Z,15.63
2019-03-31T15:35:50.496Z,14.13
2019-03-31T15:38:18.963Z,18.50
2019-03-31T15:40:48.589Z,15.80
2019-03-31T15:43:17.271Z,14.33
2019-03-31T15:45:45.756Z,12.57
2019-03-31T15:48:14.203Z,13.10
2019-03-31T15:50:42.646Z,17.40
2019-03-31T15:53:11.127Z,18.13
2019-03-31T15:55:39.603Z,18.97
2019-03-31T15:58:08.047Z,13.27
2019-03-31T16:00:36.514Z,14.13
2019-03-31T16:03:05.050Z,19.23
2019-03-31T16:05:33.568Z,14.23
2019-03-31T16:08:02.035Z,12.17
2019-03-31T16:10:30.479Z,20.33
2019-03-31T16:12:58.957Z,13.27
2019-03-31T16:15:27.582Z,16.60
2019-03-31T16:17:56.067Z,15.67
2019-03-31T16:20:24.503Z,12.17
2019-03-31T16:22:52.990Z,10.97
2019-03-31T16:25:38.505Z,11.77
2019-03-31T16:28:06.977Z,11.97
2019-03-31T16:30:36.556Z,14.70
2019-03-31T16:33:07.050Z,14.80
2019-03-31T16:35:35.370Z,17.50
2019-03-31T16:38:03.882Z,13.30
2019-03-31T16:40:32.323Z,10.80
2019-03-31T16:43:00.791Z,12.17
2019-03-31T16:45:29.259Z,15.23
2019-03-31T16:47:57.699Z,13.13
2019-03-31T16:50:26.210Z,15.97
2019-03-31T16:52:54.755Z,11.73
2019-03-31T16:55:23.205Z,12.80
2019-03-31T16:57:51.673Z,10.13
2019-03-31T17:00:20.275Z,14.07
2019-03-31T17:02:48.717Z,13.50
2019-03-31T17:05:22.054Z,15.57
2019-03-31T17:07:47.434Z,14.10
2019-03-31T17:10:15.979Z,13.33
2019-03-31T17:12:44.430Z,10.47
2019-03-31T17:15:14.039Z,13.73
2019-03-31T17:17:42.479Z,12.00
2019-03-31T17:20:11.939Z,13.93
2019-03-31T17:22:40.469Z,9.93
2019-03-31T17:25:09.863Z,9.07
2019-03-31T17:27:38.330Z,11.73
2019-03-31T17:30:07.138Z,7.87
2019-03-31T17:32:35.571Z,9.03
2019-03-31T17:35:04.770Z,14.17
2019-03-31T17:37:33.290Z,11.00
2019-03-31T17:40:06.268Z,9.93
2019-03-31T17:42:31.899Z,11.50
2019-03-31T17:45:00.353Z,14.63
2019-03-31T17:47:28.824Z,12.57
2019-03-31T17:49:57.291Z,13.97
2019-03-31T17:52:25.732Z,10.37
2019-03-31T17:54:54.207Z,10.97
2019-03-31T17:57:22.742Z,13.33
2019-03-31T17:59:51.206Z,12.20
2019-03-31T18:02:19.675Z,15.27
2019-03-31T18:04:48.134Z,12.63
2019-03-31T18:07:16.578Z,12.97
2019-03-31T18:09:45.047Z,15.17
2019-03-31T18:12:13.522Z,16.90
2019-03-31T18:14:41.994Z,16.07
2019-03-31T18:17:10.530Z,13.17
2019-03-31T18:19:38.967Z,14.33
2019-03-31T18:22:16.316Z,17.20
2019-03-31T18:24:37.629Z,13.07
2019-03-31T18:27:06.101Z,11.07
2019-03-31T18:29:34.538Z,14.80
2019-03-31T18:32:03.015Z,15.67
2019-03-31T18:34:31.547Z,11.10
2019-03-31T18:36:59.986Z,12.03
2019-03-31T18:39:28.450Z,15.77
2019-03-31T18:41:56.910Z,17.80
2019-03-31T18:44:25.770Z,12.93
2019-03-31T18:46:54.255Z,12.47
2019-03-31T18:49:22.727Z,12.07
2019-03-31T18:51:51.186Z,10.87
2019-03-31T18:54:21.343Z,13.17
2019-03-31T18:56:51.513Z,12.13
2019-03-31T18:59:30.883Z,13.43
2019-03-31T19:02:16.343Z,13.57
2019-03-31T19:04:46.465Z,11.67
2019-03-31T19:07:22.829Z,17.23
2019-03-31T19:10:23.671Z,11.07
2019-03-31T19:12:50.623Z,14.53
2019-03-31T19:15:26.747Z,15.63
2019-03-31T19:17:59.775Z,15.80
2019-03-31T19:20:30.089Z,19.37
2019-03-31T19:23:16.326Z,13.63
2019-03-31T19:25:49.338Z,10.43
2019-03-31T19:28:19.462Z,15.20
2019-03-31T19:30:55.299Z,13.10
2019-03-31T19:33:30.867Z,14.37
2019-03-31T19:36:03.599Z,19.97
2019-03-31T19:38:33.727Z,13.70
2019-03-31T19:41:20.119Z,12.77
2019-03-31T19:43:56.198Z,14.10
2019-03-31T19:46:42.286Z,16.10
2019-03-31T19:49:12.423Z,13.17
2019-03-31T19:51:42.610Z,12.40
2019-03-31T19:54:13.520Z,15.20
2019-03-31T19:57:19.558Z,14.07
2019-03-31T19:59:52.331Z,18.87
2019-03-31T20:02:31.635Z,14.33
2019-03-31T20:05:01.755Z,14.33
2019-03-31T20:07:34.575Z,19.93
2019-03-31T20:10:14.218Z,18.27
2019-03-31T20:12:48.554Z,14.07
2019-03-31T20:15:34.848Z,16.30
2019-03-31T20:18:13.922Z,17.30
2019-03-31T20:20:52.541Z,15.83
2019-03-31T20:23:22.632Z,14.37
2019-03-31T20:25:52.718Z,16.23
2019-03-31T20:28:34.569Z,12.87
2019-03-31T20:31:04.651Z,14.67
2019-03-31T20:33:34.728Z,15.17
2019-03-31T20:36:29.995Z,19.17
2019-03-31T20:41:53.499Z,15.60
2019-03-31T20:44:21.966Z,12.07
2019-03-31T20:46:50.484Z,9.20
2019-03-31T20:49:18.955Z,15.57
2019-03-31T20:51:47.391Z,12.63
2019-03-31T20:54:15.864Z,16.30
2019-03-31T20:56:44.378Z,12.00
2019-03-31T20:59:12.832Z,14.13
2019-03-31T21:01:41.301Z,10.93
2019-03-31T21:04:09.771Z,16.50
2019-03-31T21:06:38.249Z,10.50
2019-03-31T21:09:08.462Z,13.87
2019-03-31T21:12:25.575Z,13.43
2019-03-31T21:14:54.010Z,11.90
2019-03-31T21:17:22.499Z,9.40
2019-03-31T21:19:50.931Z,9.47
2019-03-31T21:22:19.373Z,16.40
2019-03-31T21:24:47.933Z,14.53
2019-03-31T21:27:16.386Z,10.23
2019-03-31T21:29:44.827Z,13.23
2019-03-31T21:32:13.422Z,13.30
2019-03-31T21:34:41.907Z,17.13
2019-03-31T21:37:10.338Z,13.57
2019-03-31T21:39:38.802Z,11.20
2019-03-31T21:42:07.690Z,16.70
2019-03-31T21:44:36.119Z,12.30
2019-03-31T21:47:04.590Z,11.67
2019-03-31T21:49:33.119Z,11.30
2019-03-31T21:52:01.566Z,11.57
2019-03-31T21:54:30.022Z,11.27
2019-03-31T21:56:58.536Z,14.53
2019-03-31T21:59:27.008Z,14.80
2019-03-31T22:01:55.446Z,10.73
2019-03-31T22:04:23.915Z,13.93
2019-03-31T22:06:52.354Z,14.13
2019-03-31T22:09:20.790Z,11.83
2019-03-31T22:11:49.247Z,14.57
2019-03-31T22:14:17.685Z,12.90
2019-03-31T22:16:46.135Z,9.80
2019-03-31T22:19:14.599Z,17.63
2019-03-31T22:21:43.077Z,13.27
2019-03-31T22:24:11.515Z,14.90
2019-03-31T22:26:39.949Z,14.07
2019-03-31T22:29:08.420Z,10.30
2019-03-31T22:31:36.928Z,15.60
2019-03-31T22:34:05.397Z,14.93
2019-03-31T22:36:33.854Z,15.80
2019-03-31T22:39:02.314Z,9.83
2019-03-31T22:41:30.758Z,10.50
2019-03-31T22:43:59.225Z,16.20
2019-03-31T22:46:27.673Z,10.47
2019-03-31T22:48:56.139Z,13.10
2019-03-31T22:51:24.577Z,16.83
2019-03-31T22:53:53.114Z,14.30
2019-03-31T22:56:21.580Z,14.17
2019-03-31T22:58:50.024Z,10.93
2019-03-31T23:01:18.569Z,10.20
2019-03-31T23:03:47.005Z,11.17
2019-03-31T23:06:15.443Z,8.73
2019-03-31T23:08:43.915Z,11.57
2019-03-31T23:11:12.347Z,15.73
2019-03-31T23:13:40.815Z,16.33
2019-03-31T23:16:09.373Z,13.83
2019-03-31T23:18:37.996Z,12.50
2019-03-31T23:21:06.459Z,17.73
2019-03-31T23:23:34.930Z,16.83
2019-03-31T23:26:03.466Z,13.60
2019-03-31T23:28:32.367Z,14.50
2019-03-31T23:31:03.512Z,14.43
2019-03-31T23:33:30.999Z,25.63
2019-03-31T23:35:59.460Z,12.43
2019-03-31T23:38:27.926Z,11.93
2019-03-31T23:40:56.367Z,15.07
2019-03-31T23:43:24.840Z,10.90
2019-03-31T23:45:53.289Z,12.97
2019-03-31T23:48:21.755Z,16.37
2019-03-31T23:50:50.196Z,15.60
2019-03-31T23:53:18.657Z,12.10
2019-03-31T23:55:47.195Z,15.43
2019-03-31T23:58:15.641Z,13.77
